createdAt,value
2018-02-15T00:01:33.695Z,98908.81
2018-02-15T00:04:01.971Z,98905.50
2018-02-15T00:06:30.267Z,98893.45
2018-02-15T00:08:58.849Z,98892.22
2018-02-15T00:11:27.160Z,98902.39
2018-02-15T00:13:55.421Z,98910.56
2018-02-15T00:16:23.730Z,98907.47
2018-02-15T00:18:52.008Z,98907.64
2018-02-15T00:21:20.294Z,98909.31
2018-02-15T00:23:48.589Z,98916.19
2018-02-15T00:26:16.850Z,98922.35
2018-02-15T00:28:45.134Z,98924.55
2018-02-15T00:31:13.780Z,98921.94
2018-02-15T00:33:42.059Z,98927.12
2018-02-15T00:36:10.371Z,98924.09
2018-02-15T00:38:38.682Z,98925.50
2018-02-15T00:41:06.956Z,98917.98
2018-02-15T00:43:35.232Z,98921.50
2018-02-15T00:46:03.531Z,98921.50
2018-02-15T00:48:31.811Z,98925.09
2018-02-15T00:51:00.115Z,98932.09
2018-02-15T00:53:28.424Z,98936.64
2018-02-15T00:55:56.716Z,98932.27
2018-02-15T00:58:25.328Z,98924.05
2018-02-15T01:00:53.618Z,98929.98
2018-02-15T01:03:21.908Z,98932.41
2018-02-15T01:05:50.217Z,98926.17
2018-02-15T01:08:18.584Z,98918.53
2018-02-15T01:10:46.912Z,98915.16
2018-02-15T01:13:15.208Z,98901.61
2018-02-15T01:15:43.565Z,98881.23
2018-02-15T01:18:11.869Z,98875.84
2018-02-15T01:20:40.147Z,98868.20
2018-02-15T01:23:09.478Z,98859.39
2018-02-15T01:25:37.724Z,98852.09
2018-02-15T01:28:06.029Z,98854.45
2018-02-15T01:30:34.328Z,98848.80
2018-02-15T01:33:02.628Z,98842.20
2018-02-15T01:35:30.908Z,98842.02
2018-02-15T01:37:59.183Z,98837.22
2018-02-15T01:40:27.498Z,98843.34
2018-02-15T01:42:55.751Z,98830.59
2018-02-15T01:45:24.073Z,98830.35
2018-02-15T01:47:52.353Z,98834.39
2018-02-15T01:50:20.665Z,98838.39
2018-02-15T01:52:48.936Z,98841.45
2018-02-15T01:55:17.229Z,98831.89
2018-02-15T01:57:45.519Z,98836.64
2018-02-15T02:00:13.796Z,98834.91
2018-02-15T02:02:42.089Z,98832.50
2018-02-15T02:05:10.365Z,98830.39
2018-02-15T02:07:38.693Z,98830.62
2018-02-15T02:10:06.964Z,98826.77
2018-02-15T02:12:35.255Z,98821.80
2018-02-15T02:15:03.614Z,98823.50
2018-02-15T02:17:31.910Z,98827.78
2018-02-15T02:20:00.226Z,98813.17
2018-02-15T02:22:28.582Z,98821.17
2018-02-15T02:24:56.888Z,98819.97
2018-02-15T02:27:25.143Z,98815.97
2018-02-15T02:29:53.463Z,98814.88
2018-02-15T02:32:21.730Z,98817.23
2018-02-15T02:34:50.012Z,98814.03
2018-02-15T02:37:18.280Z,98818.83
2018-02-15T02:39:46.559Z,98795.34
2018-02-15T02:42:14.838Z,98792.20
2018-02-15T02:44:43.156Z,98797.83
2018-02-15T02:47:11.452Z,98793.14
2018-02-15T02:49:39.711Z,98791.63
2018-02-15T02:52:08.017Z,98787.28
2018-02-15T02:54:36.268Z,98789.09
2018-02-15T02:57:05.107Z,98769.34
2018-02-15T02:59:33.392Z,98777.17
2018-02-15T03:02:01.693Z,98776.42
2018-02-15T03:04:29.987Z,98771.36
2018-02-15T03:06:58.259Z,98775.84
2018-02-15T03:09:26.557Z,98767.05
2018-02-15T03:11:54.811Z,98776.95
2018-02-15T03:14:23.107Z,98768.38
2018-02-15T03:16:51.379Z,98767.02
2018-02-15T03:19:19.743Z,98766.09
2018-02-15T03:21:48.007Z,98751.64
2018-02-15T03:24:16.278Z,98753.84
2018-02-15T03:26:44.563Z,98756.45
2018-02-15T03:29:12.835Z,98759.35
2018-02-15T03:31:41.208Z,98759.31
2018-02-15T03:34:09.440Z,98762.75
2018-02-15T03:36:37.754Z,98760.81
2018-02-15T03:39:06.044Z,98763.86
2018-02-15T03:41:34.365Z,98762.50
2018-02-15T03:44:02.624Z,98770.23
2018-02-15T03:46:30.963Z,98772.31
2018-02-15T03:48:59.210Z,98775.90
2018-02-15T03:51:27.560Z,98772.61
2018-02-15T03:53:55.906Z,98767.14
2018-02-15T03:56:24.179Z,98774.67
2018-02-15T03:58:52.486Z,98781.75
2018-02-15T04:01:20.765Z,98771.08
2018-02-15T04:03:49.071Z,98769.13
2018-02-15T04:06:17.347Z,98777.59
2018-02-15T04:08:45.660Z,98774.91
2018-02-15T04:11:13.945Z,98773.34
2018-02-15T04:13:42.213Z,98772.45
2018-02-15T04:16:10.507Z,98776.48
2018-02-15T04:18:38.798Z,98770.83
2018-02-15T04:21:07.078Z,98769.92
2018-02-15T04:23:35.348Z,98764.45
2018-02-15T04:26:03.624Z,98764.22
2018-02-15T04:28:31.898Z,98769.20
2018-02-15T04:31:00.227Z,98768.38
2018-02-15T04:33:28.469Z,98762.83
2018-02-15T04:35:56.764Z,98769.22
2018-02-15T04:38:25.071Z,98763.88
2018-02-15T04:40:53.363Z,98767.01
2018-02-15T04:43:21.685Z,98763.66
2018-02-15T04:45:49.972Z,98764.05
2018-02-15T04:48:18.248Z,98765.36
2018-02-15T04:50:46.563Z,98767.41
2018-02-15T04:53:14.848Z,98756.91
2018-02-15T04:55:43.184Z,98758.03
2018-02-15T04:58:11.478Z,98758.36
2018-02-15T05:00:39.758Z,98755.98
2018-02-15T05:03:08.040Z,98751.03
2018-02-15T05:05:36.307Z,98753.55
2018-02-15T05:08:05.306Z,98754.09
2018-02-15T05:10:33.584Z,98749.45
2018-02-15T05:13:01.859Z,98740.81
2018-02-15T05:15:30.141Z,98732.09
2018-02-15T05:17:58.410Z,98736.34
2018-02-15T05:20:26.684Z,98725.73
2018-02-15T05:22:54.983Z,98730.67
2018-02-15T05:25:23.287Z,98729.95
2018-02-15T05:27:51.573Z,98726.61
2018-02-15T05:30:19.924Z,98725.60
2018-02-15T05:32:48.207Z,98704.74
2018-02-15T05:35:16.480Z,98716.41
2018-02-15T05:37:44.752Z,98714.13
2018-02-15T05:40:13.035Z,98715.05
2018-02-15T05:42:41.310Z,98718.70
2018-02-15T05:45:09.588Z,98713.92
2018-02-15T05:47:37.847Z,98712.28
2018-02-15T05:50:06.459Z,98718.63
2018-02-15T05:52:34.786Z,98722.97
2018-02-15T05:55:03.075Z,98715.63
2018-02-15T05:57:31.442Z,98713.89
2018-02-15T05:59:59.824Z,98719.14
2018-02-15T06:02:28.130Z,98730.44
2018-02-15T06:04:56.388Z,98737.11
2018-02-15T06:07:24.692Z,98736.06
2018-02-15T06:09:52.956Z,98742.28
2018-02-15T06:12:21.239Z,98734.45
2018-02-15T06:14:49.493Z,98737.47
2018-02-15T06:17:17.803Z,98762.00
2018-02-15T06:19:46.107Z,98758.59
2018-02-15T06:22:14.390Z,98773.13
2018-02-15T06:24:42.687Z,98768.42
2018-02-15T06:27:10.935Z,98785.98
2018-02-15T06:29:39.243Z,98772.61
2018-02-15T06:32:07.527Z,98783.70
2018-02-15T06:34:35.850Z,98782.08
2018-02-15T06:37:04.124Z,98765.43
2018-02-15T06:39:32.448Z,98770.56
2018-02-15T06:42:00.752Z,98773.34
2018-02-15T06:44:29.013Z,98770.73
2018-02-15T06:46:57.306Z,98755.66
2018-02-15T06:49:25.608Z,98772.23
2018-02-15T06:51:53.867Z,98774.74
2018-02-15T06:54:22.180Z,98772.78
2018-02-15T06:56:50.474Z,98773.34
2018-02-15T06:59:18.761Z,98774.33
2018-02-15T07:01:47.039Z,98773.13
2018-02-15T07:04:15.343Z,98769.05
2018-02-15T07:06:44.290Z,98765.53
2018-02-15T07:09:12.590Z,98763.56
2018-02-15T07:11:40.871Z,98756.53
2018-02-15T07:14:10.006Z,98748.72
2018-02-15T07:16:38.958Z,98736.53
2018-02-15T07:19:07.232Z,98738.89
2018-02-15T07:21:35.522Z,98736.25
2018-02-15T07:24:04.838Z,98727.33
2018-02-15T07:26:33.147Z,98733.52
2018-02-15T07:29:01.443Z,98721.41
2018-02-15T07:31:29.729Z,98719.44
2018-02-15T07:33:58.047Z,98718.73
2018-02-15T07:36:26.386Z,98733.19
2018-02-15T07:38:54.599Z,98746.88
2018-02-15T07:41:22.911Z,98734.68
2018-02-15T07:43:51.180Z,98746.53
2018-02-15T07:46:19.447Z,98740.34
2018-02-15T07:48:47.733Z,98740.81
2018-02-15T07:51:16.015Z,98733.30
2018-02-15T07:53:44.474Z,98732.27
2018-02-15T07:56:12.753Z,98722.31
2018-02-15T07:58:41.073Z,98716.02
2018-02-15T08:01:09.348Z,98727.27
2018-02-15T08:03:37.668Z,98731.86
2018-02-15T08:06:06.118Z,98730.59
2018-02-15T08:08:34.378Z,98728.95
2018-02-15T08:11:02.700Z,98739.22
2018-02-15T08:13:31.008Z,98733.11
2018-02-15T08:15:59.271Z,98730.77
2018-02-15T08:18:28.495Z,98727.97
2018-02-15T08:20:56.779Z,98728.08
2018-02-15T08:23:25.124Z,98733.33
2018-02-15T08:25:53.435Z,98741.94
2018-02-15T08:28:21.731Z,98742.67
2018-02-15T08:30:50.031Z,98749.56
2018-02-15T08:33:18.310Z,98747.09
2018-02-15T08:35:46.608Z,98744.08
2018-02-15T08:38:14.892Z,98736.81
2018-02-15T08:40:43.217Z,98732.77
2018-02-15T08:43:11.568Z,98732.27
2018-02-15T08:45:39.827Z,98741.41
2018-02-15T08:48:08.120Z,98737.66
2018-02-15T08:50:36.399Z,98732.47
2018-02-15T08:53:04.749Z,98727.47
2018-02-15T08:55:33.008Z,98731.81
2018-02-15T08:58:01.317Z,98708.67
2018-02-15T09:00:29.601Z,98730.33
2018-02-15T09:02:57.967Z,98736.20
2018-02-15T09:05:26.225Z,98736.28
2018-02-15T09:07:54.551Z,98730.61
2018-02-15T09:10:22.866Z,98729.98
2018-02-15T09:12:51.181Z,98737.84
2018-02-15T09:15:19.426Z,98748.67
2018-02-15T09:17:47.946Z,98743.14
2018-02-15T09:20:16.796Z,98719.15
2018-02-15T09:22:45.054Z,98762.75
2018-02-15T09:25:13.396Z,98769.58
2018-02-15T09:27:41.704Z,98769.41
2018-02-15T09:30:10.036Z,98761.14
2018-02-15T09:32:39.034Z,98762.33
2018-02-15T09:35:08.010Z,98760.88
2018-02-15T09:37:36.268Z,98765.92
2018-02-15T09:40:05.720Z,98765.51
2018-02-15T09:42:33.994Z,98764.22
2018-02-15T09:45:03.054Z,98755.56
2018-02-15T09:47:31.308Z,98769.47
2018-02-15T09:49:59.580Z,98775.03
2018-02-15T09:52:27.878Z,98775.05
2018-02-15T09:54:56.130Z,98775.82
2018-02-15T09:57:24.486Z,98778.20
2018-02-15T09:59:52.748Z,98765.38
2018-02-15T10:02:21.079Z,98772.05
2018-02-15T10:04:49.355Z,98764.00
2018-02-15T10:07:17.645Z,98767.56
2018-02-15T10:09:45.895Z,98766.53
2018-02-15T10:12:14.199Z,98769.53
2018-02-15T10:14:42.504Z,98776.44
2018-02-15T10:17:10.783Z,98775.49
2018-02-15T10:19:39.463Z,98785.78
2018-02-15T10:22:07.763Z,98783.56
2018-02-15T10:24:36.049Z,98767.50
2018-02-15T10:27:05.221Z,98779.38
2018-02-15T10:29:33.559Z,98775.09
2018-02-15T10:32:01.840Z,98783.09
2018-02-15T10:34:30.133Z,98783.81
2018-02-15T10:36:58.404Z,98784.28
2018-02-15T10:39:26.690Z,98768.30
2018-02-15T10:41:55.031Z,98767.27
2018-02-15T10:44:23.500Z,98768.14
2018-02-15T10:46:51.811Z,98759.97
2018-02-15T10:49:20.104Z,98762.75
2018-02-15T10:51:48.505Z,98756.62
2018-02-15T10:54:16.773Z,98761.35
2018-02-15T10:56:45.159Z,98747.94
2018-02-15T10:59:13.451Z,98752.78
2018-02-15T11:01:41.771Z,98748.27
2018-02-15T11:04:24.412Z,98747.92
2018-02-15T11:06:52.736Z,98747.27
2018-02-15T11:09:21.068Z,98749.65
2018-02-15T11:11:49.332Z,98753.14
2018-02-15T11:14:17.603Z,98746.30
2018-02-15T11:16:45.892Z,98753.20
2018-02-15T11:19:14.208Z,98735.85
2018-02-15T11:21:42.532Z,98760.63
2018-02-15T11:24:10.817Z,98757.96
2018-02-15T11:26:39.240Z,98755.13
2018-02-15T11:29:07.555Z,98760.22
2018-02-15T11:31:35.825Z,98758.47
2018-02-15T11:34:04.229Z,98756.27
2018-02-15T11:36:32.573Z,98764.83
2018-02-15T11:39:00.845Z,98757.41
2018-02-15T11:41:29.180Z,98757.31
2018-02-15T11:43:57.474Z,98755.77
2018-02-15T11:46:25.804Z,98732.81
2018-02-15T11:48:54.103Z,98746.88
2018-02-15T11:51:22.398Z,98745.97
2018-02-15T11:53:50.658Z,98750.39
2018-02-15T11:56:18.957Z,98750.55
2018-02-15T11:58:47.244Z,98755.84
2018-02-15T12:01:15.674Z,98763.17
2018-02-15T12:03:44.045Z,98763.83
2018-02-15T12:06:12.364Z,98758.53
2018-02-15T12:08:40.625Z,98757.73
2018-02-15T12:11:08.948Z,98762.77
2018-02-15T12:13:37.252Z,98768.11
2018-02-15T12:16:05.583Z,98771.03
2018-02-15T12:18:33.839Z,98768.21
2018-02-15T12:21:02.191Z,98761.70
2018-02-15T12:23:30.508Z,98752.42
2018-02-15T12:25:58.815Z,98770.22
2018-02-15T12:28:27.087Z,98767.36
2018-02-15T12:30:55.394Z,98755.86
2018-02-15T12:33:23.754Z,98763.72
2018-02-15T12:35:52.047Z,98771.69
2018-02-15T12:38:20.361Z,98771.89
2018-02-15T12:40:48.645Z,98784.36
2018-02-15T12:43:16.961Z,98769.67
2018-02-15T12:45:45.256Z,98788.59
2018-02-15T12:48:13.662Z,98784.59
2018-02-15T12:50:41.901Z,98794.09
2018-02-15T12:53:10.255Z,98788.08
2018-02-15T12:55:38.664Z,98783.90
2018-02-15T12:58:06.957Z,98787.77
2018-02-15T13:00:35.279Z,98791.00
2018-02-15T13:03:04.645Z,98774.36
2018-02-15T13:05:32.863Z,98786.81
2018-02-15T13:08:02.167Z,98789.75
2018-02-15T13:10:30.435Z,98787.83
2018-02-15T13:13:10.404Z,98761.77
2018-02-15T13:15:50.386Z,98788.34
2018-02-15T13:18:18.797Z,98779.05
2018-02-15T13:20:47.103Z,98792.42
2018-02-15T13:23:15.427Z,98797.91
2018-02-15T13:25:43.862Z,98793.72
2018-02-15T13:31:12.092Z,98806.64
2018-02-15T13:33:41.119Z,98821.83
2018-02-15T13:36:09.446Z,98815.81
2018-02-15T13:38:37.928Z,98800.69
2018-02-15T13:41:06.364Z,98820.11
2018-02-15T13:43:34.651Z,98822.63
2018-02-15T13:46:03.031Z,98821.73
2018-02-15T13:48:32.335Z,98818.09
2018-02-15T13:51:00.650Z,98821.82
2018-02-15T13:53:28.992Z,98819.27
2018-02-15T13:55:57.358Z,98815.21
2018-02-15T13:58:25.849Z,98817.23
2018-02-15T14:00:56.954Z,98825.41
2018-02-15T14:03:27.466Z,98825.35
2018-02-15T14:05:55.772Z,98832.09
2018-02-15T14:08:24.104Z,98833.52
2018-02-15T14:10:52.381Z,98827.36
2018-02-15T14:13:20.672Z,98825.84
2018-02-15T14:15:48.990Z,98817.38
2018-02-15T14:18:17.279Z,98821.97
2018-02-15T14:20:45.815Z,98817.92
2018-02-15T14:23:14.103Z,98811.05
2018-02-15T14:25:42.440Z,98805.67
2018-02-15T14:28:10.733Z,98795.47
2018-02-15T14:30:39.080Z,98807.62
2018-02-15T14:33:07.391Z,98809.98
2018-02-15T14:35:35.780Z,98809.60
2018-02-15T14:38:04.422Z,98815.55
2018-02-15T14:40:32.773Z,98817.23
2018-02-15T14:43:01.059Z,98821.09
2018-02-15T14:45:29.372Z,98826.08
2018-02-15T14:47:58.401Z,98835.72
2018-02-15T14:50:26.672Z,98836.08
2018-02-15T14:52:55.037Z,98842.83
2018-02-15T14:55:23.296Z,98842.03
2018-02-15T14:57:51.637Z,98856.78
2018-02-15T15:00:19.986Z,98854.87
2018-02-15T15:02:48.281Z,98851.02
2018-02-15T15:05:16.573Z,98823.72
2018-02-15T15:07:44.888Z,98839.23
2018-02-15T15:10:13.675Z,98827.87
2018-02-15T15:12:42.048Z,98830.53
2018-02-15T15:15:10.834Z,98832.03
2018-02-15T15:17:39.141Z,98851.95
2018-02-15T15:20:07.474Z,98852.06
2018-02-15T15:22:35.772Z,98855.88
2018-02-15T15:25:05.033Z,98851.38
2018-02-15T15:27:33.329Z,98853.23
2018-02-15T15:30:01.694Z,98865.39
2018-02-15T15:32:29.969Z,98859.02
2018-02-15T15:34:58.272Z,98859.39
2018-02-15T15:37:26.584Z,98853.08
2018-02-15T15:39:54.855Z,98869.73
2018-02-15T15:42:23.166Z,98867.84
2018-02-15T15:44:51.407Z,98875.61
2018-02-15T15:47:19.718Z,98866.78
2018-02-15T15:49:47.997Z,98868.16
2018-02-15T15:52:16.292Z,98873.82
2018-02-15T15:54:44.547Z,98868.48
2018-02-15T15:57:12.897Z,98878.13
2018-02-15T15:59:41.174Z,98875.20
2018-02-15T16:02:10.094Z,98883.83
2018-02-15T16:04:39.126Z,98872.25
2018-02-15T16:07:07.434Z,98885.52
2018-02-15T16:09:35.790Z,98881.42
2018-02-15T16:12:04.734Z,98884.22
2018-02-15T16:14:33.050Z,98887.66
2018-02-15T16:17:01.347Z,98897.92
2018-02-15T16:19:29.631Z,98902.36
2018-02-15T16:21:57.955Z,98910.67
2018-02-15T16:24:26.277Z,98900.53
2018-02-15T16:26:54.695Z,98907.52
2018-02-15T16:29:22.978Z,98924.47
2018-02-15T16:31:51.340Z,98918.34
2018-02-15T16:34:19.615Z,98926.75
2018-02-15T16:36:47.920Z,98925.45
2018-02-15T16:39:16.188Z,98916.33
2018-02-15T16:41:44.532Z,98927.29
2018-02-15T16:44:12.892Z,98929.66
2018-02-15T16:46:41.169Z,98916.99
2018-02-15T16:49:09.518Z,98931.92
2018-02-15T16:51:37.780Z,98933.34
2018-02-15T16:54:06.238Z,98922.59
2018-02-15T16:56:34.464Z,98942.63
2018-02-15T16:59:02.785Z,98945.38
2018-02-15T17:01:31.022Z,98940.43
2018-02-15T17:03:59.422Z,98954.88
2018-02-15T17:06:27.667Z,98952.64
2018-02-15T17:08:55.944Z,98952.73
2018-02-15T17:11:24.249Z,98962.99
2018-02-15T17:13:52.561Z,98969.85
2018-02-15T17:16:20.810Z,98973.20
2018-02-15T17:18:49.127Z,98973.17
2018-02-15T17:21:17.400Z,98977.72
2018-02-15T17:23:45.702Z,98977.57
2018-02-15T17:26:13.978Z,98979.73
2018-02-15T17:28:42.944Z,98974.47
2018-02-15T17:31:11.342Z,98981.36
2018-02-15T17:33:39.617Z,98978.19
2018-02-15T17:36:07.928Z,98972.18
2018-02-15T17:38:36.203Z,98977.82
2018-02-15T17:41:04.506Z,98972.00
2018-02-15T17:43:32.807Z,98984.84
2018-02-15T17:46:01.088Z,98991.45
2018-02-15T17:48:29.411Z,98986.70
2018-02-15T17:50:57.741Z,98989.54
2018-02-15T17:53:26.193Z,98992.34
2018-02-15T17:55:54.438Z,98972.05
2018-02-15T17:58:22.745Z,98992.05
2018-02-15T18:00:51.003Z,98995.30
2018-02-15T18:03:20.011Z,98999.02
2018-02-15T18:05:48.290Z,99001.19
2018-02-15T18:08:16.618Z,99004.63
2018-02-15T18:10:44.972Z,98996.84
2018-02-15T18:13:13.327Z,99009.05
2018-02-15T18:15:41.644Z,99010.75
2018-02-15T18:18:09.914Z,99010.91
2018-02-15T18:20:38.980Z,99004.30
2018-02-15T18:23:07.274Z,99000.72
2018-02-15T18:25:35.578Z,99002.52
2018-02-15T18:28:04.707Z,98988.67
2018-02-15T18:30:33.017Z,99004.74
2018-02-15T18:33:01.302Z,99014.69
2018-02-15T18:35:29.587Z,99014.81
2018-02-15T18:37:58.287Z,99013.77
2018-02-15T18:40:26.612Z,99011.98
2018-02-15T18:42:54.953Z,99014.04
2018-02-15T18:45:23.203Z,99021.42
2018-02-15T18:47:51.513Z,99013.66
2018-02-15T18:50:19.830Z,99029.83
2018-02-15T18:52:48.253Z,99026.25
2018-02-15T18:55:16.526Z,99033.63
2018-02-15T18:57:44.828Z,99029.69
2018-02-15T19:00:13.090Z,99024.29
2018-02-15T19:02:41.392Z,99034.55
2018-02-15T19:05:09.691Z,99049.97
2018-02-15T19:07:37.975Z,99053.85
2018-02-15T19:10:06.278Z,99050.53
2018-02-15T19:12:34.568Z,99052.09
2018-02-15T19:15:02.928Z,99052.09
2018-02-15T19:17:31.293Z,99050.45
2018-02-15T19:20:00.241Z,99046.63
2018-02-15T19:22:28.505Z,99041.85
2018-02-15T19:24:57.705Z,99041.98
2018-02-15T19:27:25.984Z,99045.39
2018-02-15T19:29:54.447Z,99046.45
2018-02-15T19:32:22.775Z,99044.62
2018-02-15T19:34:51.059Z,99040.03
2018-02-15T19:37:19.363Z,99042.45
2018-02-15T19:39:47.639Z,99041.34
2018-02-15T19:42:15.942Z,99032.61
2018-02-15T19:44:44.240Z,99039.23
2018-02-15T19:47:12.535Z,99033.81
2018-02-15T19:49:41.608Z,99030.30
2018-02-15T19:52:09.907Z,99033.07
2018-02-15T19:54:39.127Z,99035.41
2018-02-15T19:57:07.412Z,99037.97
2018-02-15T19:59:35.693Z,99044.21
2018-02-15T20:02:04.788Z,99034.02
2018-02-15T20:04:33.171Z,99044.02
2018-02-15T20:07:01.458Z,99054.28
2018-02-15T20:09:29.767Z,99051.00
2018-02-15T20:11:58.074Z,99056.66
2018-02-15T20:14:26.337Z,99055.17
2018-02-15T20:16:54.644Z,99060.84
2018-02-15T20:19:22.963Z,99067.00
2018-02-15T20:21:51.244Z,99075.23
2018-02-15T20:24:19.580Z,99077.47
2018-02-15T20:26:53.393Z,99079.89
2018-02-15T20:29:21.704Z,99082.09
2018-02-15T20:31:49.976Z,99083.45
2018-02-15T20:34:18.245Z,99083.98
2018-02-15T20:36:46.505Z,99083.45
2018-02-15T20:39:20.415Z,99090.23
2018-02-15T20:41:48.674Z,99089.62
2018-02-15T20:44:16.968Z,99089.60
2018-02-15T20:46:45.261Z,99091.88
2018-02-15T20:49:19.056Z,99095.47
2018-02-15T20:51:52.857Z,99091.21
2018-02-15T20:54:26.634Z,99085.95
2018-02-15T20:56:54.891Z,99080.86
2018-02-15T20:59:23.194Z,99081.88
2018-02-15T21:01:51.567Z,99082.83
2018-02-15T21:04:19.856Z,99089.96
2018-02-15T21:06:48.142Z,99083.62
2018-02-15T21:09:16.491Z,99084.83
2018-02-15T21:11:44.766Z,99086.14
2018-02-15T21:14:13.029Z,99089.33
2018-02-15T21:16:41.336Z,99086.65
2018-02-15T21:19:09.645Z,99092.72
2018-02-15T21:21:37.980Z,99096.84
2018-02-15T21:24:06.255Z,99109.19
2018-02-15T21:26:34.534Z,99111.84
2018-02-15T21:29:02.876Z,99101.74
2018-02-15T21:31:31.104Z,99111.41
2018-02-15T21:33:59.375Z,99113.28
2018-02-15T21:36:27.675Z,99114.95
2018-02-15T21:38:56.271Z,99122.23
2018-02-15T21:41:24.593Z,99126.17
2018-02-15T21:43:52.900Z,99126.85
2018-02-15T21:46:21.171Z,99117.52
2018-02-15T21:48:49.489Z,99134.30
2018-02-15T21:51:17.756Z,99133.33
2018-02-15T21:53:46.034Z,99133.84
2018-02-15T21:56:14.304Z,99130.23
2018-02-15T21:58:42.605Z,99123.92
2018-02-15T22:01:10.887Z,99120.09
2018-02-15T22:03:39.181Z,99127.57
2018-02-15T22:06:07.467Z,99140.99
2018-02-15T22:08:36.147Z,99135.33
2018-02-15T22:11:04.444Z,99158.56
2018-02-15T22:13:32.730Z,99153.07
2018-02-15T22:16:01.100Z,99162.18
2018-02-15T22:18:29.380Z,99168.89
2018-02-15T22:20:57.742Z,99167.97
2018-02-15T22:23:26.009Z,99182.63
2018-02-15T22:25:54.318Z,99187.44
2018-02-15T22:28:22.562Z,99169.48
2018-02-15T22:30:50.881Z,99178.27
2018-02-15T22:33:19.523Z,99183.73
2018-02-15T22:35:47.821Z,99174.41
2018-02-15T22:38:16.081Z,99167.97
2018-02-15T22:40:44.386Z,99170.92
2018-02-15T22:43:12.681Z,99169.48
2018-02-15T22:45:40.987Z,99173.34
2018-02-15T22:48:09.388Z,99166.75
2018-02-15T22:50:37.654Z,99166.10
2018-02-15T22:53:05.946Z,99170.13
2018-02-15T22:55:34.211Z,99165.63
2018-02-15T22:58:02.496Z,99162.30
2018-02-15T23:00:30.807Z,99169.23
2018-02-15T23:02:59.081Z,99195.77
2018-02-15T23:05:27.413Z,99208.59
2018-02-15T23:07:55.809Z,99220.28
2018-02-15T23:10:24.125Z,99226.73
2018-02-15T23:12:52.505Z,99228.59
2018-02-15T23:15:21.035Z,99232.49
2018-02-15T23:17:49.291Z,99230.72
2018-02-15T23:20:17.601Z,99237.27
2018-02-15T23:22:45.873Z,99231.80
2018-02-15T23:25:14.164Z,99236.44
2018-02-15T23:27:42.478Z,99244.95
2018-02-15T23:30:10.703Z,99247.90
2018-02-15T23:32:39.021Z,99246.82
2018-02-15T23:35:07.288Z,99240.78
2018-02-15T23:37:35.643Z,99237.56
2018-02-15T23:40:03.930Z,99241.78
2018-02-15T23:42:32.234Z,99237.00
2018-02-15T23:45:00.551Z,99233.59
2018-02-15T23:47:28.898Z,99234.30
2018-02-15T23:49:57.239Z,99235.95
2018-02-15T23:52:25.522Z,99243.09
2018-02-15T23:54:53.849Z,99244.24
2018-02-15T23:57:22.151Z,99238.45
2018-02-15T23:59:50.464Z,99244.80
